createdAt,value
2023-11-10T00:00:53.641Z,9.40
2023-11-10T00:03:41.999Z,10.10
2023-11-10T00:06:10.481Z,8.50
2023-11-10T00:08:38.712Z,9.70
2023-11-10T00:11:09.044Z,7.90
2023-11-10T00:13:37.130Z,8.70
2023-11-10T00:16:07.810Z,10.20
2023-11-10T00:18:36.301Z,7.70
2023-11-10T00:21:04.496Z,10.80
2023-11-10T00:23:33.196Z,9.90
2023-11-10T00:26:01.247Z,7.80
2023-11-10T00:28:32.636Z,8.10
2023-11-10T00:31:00.492Z,9.10
2023-11-10T00:33:29.478Z,9.00
2023-11-10T00:35:57.858Z,8.70
2023-11-10T00:38:27.057Z,10.50
2023-11-10T00:40:57.193Z,9.40
2023-11-10T00:43:25.829Z,8.70
2023-11-10T00:45:57.506Z,9.10
2023-11-10T00:48:25.716Z,10.50
2023-11-10T00:50:53.851Z,8.30
2023-11-10T00:53:23.462Z,10.80
2023-11-10T00:55:51.465Z,9.90
2023-11-10T00:58:19.396Z,11.00
2023-11-10T01:00:49.077Z,9.90
2023-11-10T01:03:17.999Z,9.20
2023-11-10T01:05:46.828Z,8.30
2023-11-10T01:08:14.829Z,10.80
2023-11-10T01:10:43.461Z,7.90
2023-11-10T01:13:15.489Z,9.60
2023-11-10T01:15:43.669Z,7.40
2023-11-10T01:18:11.965Z,8.90
2023-11-10T01:20:40.102Z,8.20
2023-11-10T01:23:08.232Z,8.40
2023-11-10T01:25:36.796Z,8.40
2023-11-10T01:28:05.161Z,8.60
2023-11-10T01:30:33.861Z,9.10
2023-11-10T01:33:02.492Z,11.60
2023-11-10T01:35:30.989Z,9.00
2023-11-10T01:37:59.300Z,7.10
2023-11-10T01:40:27.372Z,9.30
2023-11-10T01:42:55.532Z,7.60
2023-11-10T01:45:23.605Z,8.50
2023-11-10T01:47:51.754Z,8.60
2023-11-10T01:50:20.178Z,11.60
2023-11-10T01:52:49.129Z,10.10
2023-11-10T01:55:18.449Z,8.00
2023-11-10T01:57:48.277Z,9.00
2023-11-10T02:00:17.768Z,9.30
2023-11-10T02:02:46.864Z,8.60
2023-11-10T02:05:15.843Z,7.30
2023-11-10T02:07:46.871Z,19.80
2023-11-10T02:10:17.104Z,17.10
2023-11-10T02:12:52.168Z,14.20
2023-11-10T02:15:22.190Z,9.40
2023-11-10T02:17:51.188Z,5.80
2023-11-10T02:20:19.568Z,7.30
2023-11-10T02:22:51.286Z,8.60
2023-11-10T02:25:20.222Z,6.20
2023-11-10T02:27:49.039Z,7.80
2023-11-10T02:30:17.357Z,7.00
2023-11-10T02:32:47.706Z,7.70
2023-11-10T02:35:16.600Z,6.80
2023-11-10T02:37:44.924Z,7.70
2023-11-10T02:40:13.087Z,7.00
2023-11-10T02:42:41.177Z,7.10
2023-11-10T02:45:10.022Z,6.20
2023-11-10T02:47:38.199Z,6.90
2023-11-10T02:50:06.606Z,8.10
2023-11-10T02:52:34.762Z,10.20
2023-11-10T02:55:02.885Z,7.90
2023-11-10T02:57:30.956Z,6.50
2023-11-10T02:59:59.400Z,6.30
2023-11-10T03:02:28.215Z,7.30
2023-11-10T03:04:56.859Z,8.00
2023-11-10T03:07:25.169Z,8.80
2023-11-10T03:09:53.203Z,6.90
2023-11-10T03:12:21.273Z,6.90
2023-11-10T03:14:49.720Z,7.50
2023-11-10T03:17:18.428Z,7.70
2023-11-10T03:19:46.666Z,6.50
2023-11-10T03:22:15.388Z,8.00
2023-11-10T03:24:43.743Z,7.10
2023-11-10T03:27:12.060Z,8.90
2023-11-10T03:29:40.135Z,7.60
2023-11-10T03:32:08.495Z,6.70
2023-11-10T03:34:43.741Z,6.30
2023-11-10T03:37:15.808Z,8.50
2023-11-10T03:39:43.718Z,8.40
2023-11-10T03:42:12.412Z,8.50
2023-11-10T03:44:40.364Z,7.50
2023-11-10T03:47:08.507Z,7.00
2023-11-10T03:49:38.641Z,7.30
2023-11-10T03:52:07.409Z,8.50
2023-11-10T03:54:36.905Z,7.90
2023-11-10T03:57:05.394Z,8.60
2023-11-10T03:59:34.079Z,8.20
2023-11-10T04:02:02.029Z,10.70
2023-11-10T04:04:31.681Z,7.90
2023-11-10T04:06:59.887Z,10.10
2023-11-10T04:09:28.290Z,10.30
2023-11-10T04:11:56.755Z,9.50
2023-11-10T04:14:24.911Z,8.00
2023-11-10T04:16:53.068Z,9.10
2023-11-10T04:19:21.201Z,11.30
2023-11-10T04:21:49.901Z,9.60
2023-11-10T04:24:18.767Z,11.60
2023-11-10T04:26:47.145Z,13.90
2023-11-10T04:29:15.215Z,13.90
2023-11-10T04:31:43.536Z,11.60
2023-11-10T04:34:11.930Z,12.40
2023-11-10T04:36:41.917Z,13.10
2023-11-10T04:39:10.095Z,12.80
2023-11-10T04:41:40.281Z,12.80
2023-11-10T04:44:09.557Z,11.50
2023-11-10T04:46:41.691Z,13.60
2023-11-10T04:49:11.940Z,11.20
2023-11-10T04:51:40.820Z,11.70
2023-11-10T04:54:12.677Z,12.80
2023-11-10T04:56:51.560Z,12.30
2023-11-10T04:59:19.751Z,13.20
2023-11-10T05:01:48.929Z,12.80
2023-11-10T05:04:17.416Z,14.20
2023-11-10T05:06:45.922Z,11.90
2023-11-10T05:09:14.004Z,12.50
2023-11-10T05:11:42.392Z,12.80
2023-11-10T05:14:12.193Z,12.70
2023-11-10T05:16:41.590Z,12.60
2023-11-10T05:19:09.780Z,10.60
2023-11-10T05:21:37.920Z,11.40
2023-11-10T05:24:06.798Z,11.20
2023-11-10T05:26:34.779Z,12.80
2023-11-10T05:29:03.534Z,12.80
2023-11-10T05:31:34.095Z,11.00
2023-11-10T05:34:02.454Z,12.90
2023-11-10T05:36:30.842Z,13.50
2023-11-10T05:39:02.415Z,13.50
2023-11-10T05:41:34.245Z,11.90
2023-11-10T05:44:03.954Z,14.10
2023-11-10T05:46:32.067Z,9.70
2023-11-10T05:49:00.510Z,11.10
2023-11-10T05:51:28.785Z,12.10
2023-11-10T05:53:56.937Z,12.80
2023-11-10T05:56:25.663Z,15.50
2023-11-10T05:58:54.330Z,12.90
2023-11-10T06:01:22.916Z,13.50
2023-11-10T06:03:57.880Z,12.10
2023-11-10T06:06:27.727Z,12.60
2023-11-10T06:08:56.859Z,13.00
2023-11-10T06:11:25.207Z,12.50
2023-11-10T06:13:54.719Z,13.90
2023-11-10T06:16:23.039Z,12.10
2023-11-10T06:18:56.366Z,12.40
2023-11-10T06:21:26.221Z,13.50
2023-11-10T06:23:57.117Z,11.80
2023-11-10T06:26:25.539Z,12.30
2023-11-10T06:28:53.711Z,13.30
2023-11-10T06:31:22.225Z,14.10
2023-11-10T06:33:50.951Z,15.20
2023-11-10T06:36:20.175Z,14.00
2023-11-10T06:38:48.662Z,13.90
2023-11-10T06:41:17.136Z,12.90
2023-11-10T06:43:48.666Z,12.60
2023-11-10T06:46:28.120Z,12.90
2023-11-10T06:48:57.359Z,13.90
2023-11-10T06:51:25.586Z,11.50
2023-11-10T06:53:53.608Z,11.60
2023-11-10T06:56:21.932Z,12.60
2023-11-10T06:58:50.110Z,11.40
2023-11-10T07:01:18.314Z,11.50
2023-11-10T07:03:47.011Z,12.50
2023-11-10T07:06:15.470Z,10.50
2023-11-10T07:08:44.953Z,14.20
2023-11-10T07:11:16.083Z,10.80
2023-11-10T07:13:46.314Z,12.40
2023-11-10T07:16:16.095Z,12.10
2023-11-10T07:18:44.198Z,10.90
2023-11-10T07:21:12.868Z,13.00
2023-11-10T07:23:40.872Z,15.00
2023-11-10T07:26:10.116Z,13.70
2023-11-10T07:28:38.060Z,13.70
2023-11-10T07:31:06.387Z,12.50
2023-11-10T07:33:34.812Z,13.70
2023-11-10T07:36:03.034Z,13.00
2023-11-10T07:38:31.241Z,11.10
2023-11-10T07:40:59.544Z,10.50
2023-11-10T07:43:27.857Z,11.80
2023-11-10T07:45:56.483Z,11.30
2023-11-10T07:48:24.665Z,10.00
2023-11-10T07:50:53.821Z,12.80
2023-11-10T07:53:22.243Z,12.20
2023-11-10T07:55:51.408Z,13.10
2023-11-10T07:58:19.824Z,11.40
2023-11-10T08:00:49.179Z,11.10
2023-11-10T08:03:20.132Z,9.60
2023-11-10T08:05:48.995Z,10.10
2023-11-10T08:08:17.389Z,11.00
2023-11-10T08:10:46.057Z,13.10
2023-11-10T08:13:14.456Z,10.20
2023-11-10T08:15:45.202Z,11.60
2023-11-10T08:18:13.900Z,11.00
2023-11-10T08:20:42.025Z,10.00
2023-11-10T08:23:11.048Z,10.40
2023-11-10T08:25:39.244Z,10.40
2023-11-10T08:28:13.148Z,8.70
2023-11-10T08:30:41.161Z,8.60
2023-11-10T08:33:10.416Z,9.70
2023-11-10T08:35:38.490Z,10.70
2023-11-10T08:38:06.846Z,9.10
2023-11-10T08:40:35.666Z,9.30
2023-11-10T08:43:04.038Z,8.50
2023-11-10T08:45:32.317Z,9.00
2023-11-10T08:48:01.137Z,9.10
2023-11-10T08:50:29.524Z,8.60
2023-11-10T08:52:58.317Z,9.00
2023-11-10T08:55:29.197Z,9.20
2023-11-10T08:57:57.599Z,7.50
2023-11-10T09:00:27.415Z,8.10
2023-11-10T09:02:57.428Z,10.00
2023-11-10T09:05:27.267Z,10.20
2023-11-10T09:07:55.625Z,10.20
2023-11-10T09:10:26.809Z,8.70
2023-11-10T09:12:54.739Z,8.70
2023-11-10T09:15:23.901Z,8.40
2023-11-10T09:17:52.052Z,8.70
2023-11-10T09:20:22.491Z,11.10
2023-11-10T09:22:50.782Z,9.40
2023-11-10T09:25:21.891Z,9.30
2023-11-10T09:27:50.138Z,9.70
2023-11-10T09:30:18.542Z,9.10
2023-11-10T09:32:47.264Z,7.50
2023-11-10T09:35:18.378Z,8.10
2023-11-10T09:37:48.144Z,10.10
2023-11-10T09:40:21.211Z,11.40
2023-11-10T09:42:49.949Z,8.20
2023-11-10T09:45:22.643Z,8.50
2023-11-10T09:47:53.643Z,13.60
2023-11-10T09:50:23.091Z,8.90
2023-11-10T09:52:52.187Z,11.50
2023-11-10T09:55:21.750Z,10.60
2023-11-10T09:57:52.747Z,11.30
2023-11-10T10:00:22.567Z,13.10
2023-11-10T10:02:50.931Z,10.80
2023-11-10T10:05:19.387Z,8.30
2023-11-10T10:07:47.987Z,9.20
2023-11-10T10:10:21.577Z,10.10
2023-11-10T10:12:49.633Z,11.70
2023-11-10T10:15:31.491Z,11.60
2023-11-10T10:18:10.537Z,13.40
2023-11-10T10:20:41.368Z,11.80
2023-11-10T10:23:12.332Z,16.30
2023-11-10T10:25:41.377Z,19.10
2023-11-10T10:28:09.849Z,16.20
2023-11-10T10:30:39.893Z,21.00
2023-11-10T10:33:09.023Z,15.30
2023-11-10T10:35:37.522Z,19.40
2023-11-10T10:38:06.149Z,14.50
2023-11-10T10:40:37.498Z,21.20
2023-11-10T10:43:08.137Z,14.00
2023-11-10T10:45:38.591Z,8.90
2023-11-10T10:48:07.164Z,7.30
2023-11-10T10:50:39.019Z,6.90
2023-11-10T10:53:09.423Z,10.00
2023-11-10T10:55:39.257Z,9.20
2023-11-10T10:58:08.894Z,8.30
2023-11-10T11:00:38.161Z,8.10
2023-11-10T11:03:24.938Z,9.60
2023-11-10T11:06:02.967Z,8.00
2023-11-10T11:08:51.214Z,8.20
2023-11-10T11:11:23.024Z,8.10
2023-11-10T11:13:54.194Z,6.60
2023-11-10T11:16:29.626Z,7.80
2023-11-10T11:18:58.067Z,7.50
2023-11-10T11:21:26.342Z,7.50
2023-11-10T11:23:54.617Z,6.50
2023-11-10T11:26:24.707Z,7.50
2023-11-10T11:29:01.197Z,8.30
2023-11-10T11:31:29.257Z,9.20
2023-11-10T11:34:04.629Z,7.00
2023-11-10T11:36:34.461Z,7.60
2023-11-10T11:39:04.099Z,7.90
2023-11-10T11:41:32.378Z,8.00
2023-11-10T11:44:00.873Z,9.80
2023-11-10T11:46:35.294Z,11.00
2023-11-10T11:49:04.302Z,12.90
2023-11-10T11:51:34.907Z,10.70
2023-11-10T11:54:03.475Z,8.40
2023-11-10T11:56:35.444Z,8.50
2023-11-10T11:59:04.538Z,8.80
2023-11-10T12:01:37.801Z,8.50
2023-11-10T12:04:09.323Z,8.40
2023-11-10T12:06:37.995Z,9.50
2023-11-10T12:09:07.771Z,10.70
2023-11-10T12:11:37.173Z,10.40
2023-11-10T12:14:10.941Z,8.70
2023-11-10T12:16:46.002Z,7.70
2023-11-10T12:19:18.909Z,9.50
2023-11-10T12:21:52.105Z,12.40
2023-11-10T12:24:31.494Z,27.40
2023-11-10T12:27:03.277Z,10.10
2023-11-10T12:29:33.133Z,11.00
2023-11-10T12:32:02.002Z,10.70
2023-11-10T12:34:30.391Z,8.70
2023-11-10T12:37:03.536Z,8.80
2023-11-10T12:39:33.825Z,11.50
2023-11-10T12:42:07.284Z,10.00
2023-11-10T12:44:35.489Z,13.00
2023-11-10T12:47:10.332Z,9.30
2023-11-10T12:49:39.174Z,10.40
2023-11-10T12:52:11.693Z,11.70
2023-11-10T12:54:42.052Z,9.50
2023-11-10T12:57:16.204Z,10.30
2023-11-10T12:59:44.641Z,9.70
2023-11-10T13:02:18.274Z,12.80
2023-11-10T13:04:51.457Z,19.00
2023-11-10T13:07:22.912Z,10.60
2023-11-10T13:09:56.145Z,11.80
2023-11-10T13:12:27.445Z,12.00
2023-11-10T13:14:56.137Z,11.10
2023-11-10T13:17:24.631Z,12.30
2023-11-10T13:19:53.608Z,10.80
2023-11-10T13:22:21.876Z,10.40
2023-11-10T13:24:52.348Z,12.60
2023-11-10T13:27:22.662Z,12.70
2023-11-10T13:29:50.916Z,10.80
2023-11-10T13:32:19.383Z,10.90
2023-11-10T13:34:49.239Z,12.60
2023-11-10T13:37:23.119Z,11.80
2023-11-10T13:39:53.995Z,12.80
2023-11-10T13:42:22.276Z,11.40
2023-11-10T13:45:02.686Z,12.70
2023-11-10T13:50:01.007Z,12.50
2023-11-10T13:52:29.804Z,14.80
2023-11-10T13:54:58.142Z,15.30
2023-11-10T13:57:26.920Z,17.80
2023-11-10T13:59:55.101Z,13.90
2023-11-10T14:02:23.364Z,14.20
2023-11-10T14:04:51.552Z,13.70
2023-11-10T14:07:19.853Z,14.00
2023-11-10T14:09:49.241Z,13.10
2023-11-10T14:12:22.861Z,13.70
2023-11-10T14:14:51.099Z,12.40
2023-11-10T14:17:19.388Z,15.30
2023-11-10T14:19:47.537Z,12.70
2023-11-10T14:22:19.499Z,11.80
2023-11-10T14:24:48.807Z,15.10
2023-11-10T14:27:18.001Z,12.20
2023-11-10T14:29:46.597Z,11.60
2023-11-10T14:32:28.642Z,12.90
2023-11-10T14:37:31.178Z,11.20
2023-11-10T14:39:59.889Z,12.20
2023-11-10T14:42:32.663Z,11.90
2023-11-10T14:45:07.158Z,12.70
2023-11-10T14:47:37.175Z,11.40
2023-11-10T14:50:14.791Z,13.30
2023-11-10T14:52:46.536Z,12.30
2023-11-10T14:55:16.221Z,11.40
2023-11-10T14:57:44.966Z,12.70
2023-11-10T15:00:14.733Z,11.30
2023-11-10T15:02:44.161Z,11.70
2023-11-10T15:05:15.941Z,13.30
2023-11-10T15:07:44.677Z,12.60
2023-11-10T15:10:13.381Z,11.50
2023-11-10T15:12:46.590Z,11.00
2023-11-10T15:15:15.143Z,12.60
2023-11-10T15:17:43.872Z,12.00
2023-11-10T15:20:17.836Z,16.40
2023-11-10T15:22:46.314Z,13.00
2023-11-10T15:25:21.555Z,14.30
2023-11-10T15:27:53.174Z,11.90
2023-11-10T15:30:22.110Z,11.30
2023-11-10T15:32:52.212Z,11.60
2023-11-10T15:35:28.617Z,12.20
2023-11-10T15:37:59.261Z,11.90
2023-11-10T15:40:42.556Z,11.20
2023-11-10T15:43:11.744Z,11.70
2023-11-10T15:45:46.469Z,13.10
2023-11-10T15:48:22.403Z,11.50
2023-11-10T15:50:55.874Z,18.20
2023-11-10T15:53:26.969Z,14.20
2023-11-10T15:56:00.999Z,17.30
2023-11-10T15:58:35.644Z,14.50
2023-11-10T16:01:06.774Z,14.60
2023-11-10T16:03:38.862Z,12.10
2023-11-10T16:06:09.142Z,11.90
2023-11-10T16:08:39.740Z,13.50
2023-11-10T16:11:15.709Z,11.50
2023-11-10T16:13:47.289Z,13.20
2023-11-10T16:16:23.479Z,15.90
2023-11-10T16:18:54.458Z,13.50
2023-11-10T16:21:29.710Z,12.00
2023-11-10T16:24:00.579Z,12.90
2023-11-10T16:26:32.031Z,12.30
2023-11-10T16:29:10.696Z,12.70
2023-11-10T16:31:41.970Z,11.80
2023-11-10T16:34:12.932Z,16.80
2023-11-10T16:36:43.327Z,18.10
2023-11-10T16:39:17.115Z,14.30
2023-11-10T16:41:53.414Z,15.40
2023-11-10T16:44:26.187Z,12.90
2023-11-10T16:46:55.589Z,13.60
2023-11-10T16:49:26.801Z,13.30
2023-11-10T16:52:00.674Z,13.20
2023-11-10T16:54:29.550Z,12.60
2023-11-10T16:56:59.368Z,12.80
2023-11-10T16:59:27.923Z,13.30
2023-11-10T17:01:59.629Z,15.60
2023-11-10T17:04:28.775Z,15.20
2023-11-10T17:06:57.680Z,17.00
2023-11-10T17:09:31.412Z,15.70
2023-11-10T17:12:00.730Z,12.10
2023-11-10T17:14:29.225Z,12.30
2023-11-10T17:16:57.853Z,12.40
2023-11-10T17:19:26.409Z,10.70
2023-11-10T17:21:55.004Z,12.30
2023-11-10T17:24:23.660Z,11.70
2023-11-10T17:26:54.802Z,13.90
2023-11-10T17:29:34.055Z,13.00
2023-11-10T17:32:05.144Z,12.20
2023-11-10T17:34:33.866Z,14.40
2023-11-10T17:37:02.281Z,14.70
2023-11-10T17:39:32.325Z,14.80
2023-11-10T17:42:02.401Z,12.30
2023-11-10T17:44:30.753Z,14.10
2023-11-10T17:47:00.917Z,11.60
2023-11-10T17:49:30.382Z,12.60
2023-11-10T17:51:59.023Z,13.00
2023-11-10T17:54:27.955Z,12.40
2023-11-10T17:56:56.327Z,13.00
2023-11-10T17:59:25.086Z,12.30
2023-11-10T18:01:56.212Z,15.30
2023-11-10T18:04:27.936Z,11.80
2023-11-10T18:06:56.731Z,16.90
2023-11-10T18:09:24.976Z,12.50
2023-11-10T18:11:53.883Z,13.70
2023-11-10T18:14:23.190Z,12.60
2023-11-10T18:16:51.809Z,12.20
2023-11-10T18:19:20.533Z,12.10
2023-11-10T18:21:52.856Z,12.50
2023-11-10T18:24:21.179Z,10.80
2023-11-10T18:26:50.640Z,12.90
2023-11-10T18:29:21.587Z,12.30
2023-11-10T18:31:51.815Z,12.90
2023-11-10T18:34:21.349Z,14.80
2023-11-10T18:36:49.647Z,13.10
2023-11-10T18:39:25.795Z,13.30
2023-11-10T18:41:54.261Z,15.60
2023-11-10T18:44:22.743Z,13.00
2023-11-10T18:46:55.663Z,16.80
2023-11-10T18:49:24.116Z,13.80
2023-11-10T18:51:52.819Z,15.00
2023-11-10T18:54:21.171Z,14.80
2023-11-10T18:56:49.695Z,13.20
2023-11-10T18:59:18.439Z,11.70
2023-11-10T19:01:47.840Z,48.40
2023-11-10T19:04:16.382Z,34.40
2023-11-10T19:06:46.359Z,18.70
2023-11-10T19:09:15.225Z,16.60
2023-11-10T19:11:44.572Z,19.80
2023-11-10T19:14:14.644Z,32.10
2023-11-10T19:16:43.371Z,24.00
2023-11-10T19:19:11.882Z,23.00
2023-11-10T19:21:41.966Z,20.90
2023-11-10T19:24:16.184Z,23.10
2023-11-10T19:26:48.323Z,23.90
2023-11-10T19:29:25.837Z,20.80
2023-11-10T19:31:54.081Z,21.00
2023-11-10T19:34:25.871Z,19.10
2023-11-10T19:37:01.947Z,19.60
2023-11-10T19:39:31.411Z,21.50
2023-11-10T19:42:07.339Z,21.70
2023-11-10T19:44:39.133Z,20.70
2023-11-10T19:47:08.453Z,20.50
2023-11-10T19:49:53.454Z,21.60
2023-11-10T19:52:24.953Z,22.40
2023-11-10T19:54:57.278Z,20.80
2023-11-10T19:57:25.987Z,18.50
2023-11-10T20:02:26.585Z,20.50
2023-11-10T20:04:55.420Z,25.50
2023-11-10T20:07:23.900Z,21.80
2023-11-10T20:09:52.327Z,25.30
2023-11-10T20:12:30.210Z,23.40
2023-11-10T20:15:05.202Z,22.20
2023-11-10T20:17:34.230Z,24.20
2023-11-10T20:20:07.100Z,29.60
2023-11-10T20:22:36.099Z,27.50
2023-11-10T20:25:08.697Z,28.90
2023-11-10T20:27:39.081Z,28.60
2023-11-10T20:30:12.182Z,29.00
2023-11-10T20:32:46.928Z,29.30
2023-11-10T20:35:17.341Z,31.00
2023-11-10T20:37:45.617Z,30.50
2023-11-10T20:40:16.681Z,30.10
2023-11-10T20:42:47.066Z,24.70
2023-11-10T20:45:17.941Z,22.60
2023-11-10T20:47:46.985Z,26.90
2023-11-10T20:50:15.298Z,26.10
2023-11-10T20:52:46.149Z,23.80
2023-11-10T20:55:15.987Z,23.40
2023-11-10T20:57:44.812Z,22.40
2023-11-10T21:00:21.290Z,21.60
2023-11-10T21:02:50.919Z,20.30
2023-11-10T21:05:23.477Z,18.80
2023-11-10T21:07:51.847Z,15.60
2023-11-10T21:10:21.848Z,16.00
2023-11-10T21:12:59.407Z,19.70
2023-11-10T21:15:35.246Z,18.60
2023-11-10T21:18:07.322Z,19.90
2023-11-10T21:20:37.715Z,20.00
2023-11-10T21:23:09.362Z,14.80
2023-11-10T21:25:41.529Z,23.30
2023-11-10T21:28:13.822Z,16.80
2023-11-10T21:30:52.418Z,16.10
2023-11-10T21:33:28.773Z,14.80
2023-11-10T21:36:02.221Z,18.40
2023-11-10T21:38:39.773Z,16.40
2023-11-10T21:41:14.033Z,17.30
2023-11-10T21:43:44.385Z,19.30
2023-11-10T21:46:13.095Z,17.30
2023-11-10T21:48:43.532Z,17.40
2023-11-10T21:51:15.456Z,18.80
2023-11-10T21:53:43.741Z,18.90
2023-11-10T21:56:16.546Z,20.70
2023-11-10T21:58:45.220Z,20.90
2023-11-10T22:01:16.046Z,22.30
2023-11-10T22:03:46.204Z,19.90
2023-11-10T22:06:15.423Z,20.70
2023-11-10T22:08:45.588Z,21.10
2023-11-10T22:11:15.189Z,19.50
2023-11-10T22:13:44.505Z,18.80
2023-11-10T22:16:14.968Z,19.90
2023-11-10T22:18:47.432Z,19.10
2023-11-10T22:21:16.776Z,18.00
2023-11-10T22:23:45.500Z,18.10
2023-11-10T22:26:13.640Z,17.60
2023-11-10T22:28:41.745Z,18.20
2023-11-10T22:31:10.909Z,19.80
2023-11-10T22:33:39.246Z,22.00
2023-11-10T22:36:09.100Z,21.50
2023-11-10T22:38:37.565Z,19.90
2023-11-10T22:41:05.858Z,21.40
2023-11-10T22:43:34.074Z,23.10
2023-11-10T22:46:02.260Z,18.90
2023-11-10T22:48:30.532Z,22.70
2023-11-10T22:51:00.423Z,23.80
2023-11-10T22:53:28.463Z,22.10
2023-11-10T22:55:57.160Z,18.60
2023-11-10T22:58:25.833Z,18.30
2023-11-10T23:00:53.963Z,18.00
2023-11-10T23:03:23.998Z,21.80
2023-11-10T23:05:54.840Z,17.50
2023-11-10T23:08:23.339Z,21.10
2023-11-10T23:10:52.134Z,18.80
2023-11-10T23:13:20.464Z,17.40
2023-11-10T23:15:48.550Z,18.20
2023-11-10T23:18:17.129Z,20.70
2023-11-10T23:20:45.264Z,15.60
2023-11-10T23:23:19.242Z,14.20
2023-11-10T23:25:49.764Z,16.30
2023-11-10T23:28:18.245Z,20.30
2023-11-10T23:30:46.527Z,19.10
2023-11-10T23:33:18.937Z,17.70
2023-11-10T23:35:50.844Z,18.70
2023-11-10T23:38:25.377Z,21.20
2023-11-10T23:40:53.577Z,18.10
2023-11-10T23:43:22.030Z,17.30
2023-11-10T23:45:50.344Z,20.60
2023-11-10T23:48:18.766Z,19.10
2023-11-10T23:50:48.085Z,16.70
2023-11-10T23:53:17.802Z,19.00
2023-11-10T23:55:46.926Z,19.80
2023-11-10T23:58:16.277Z,22.40
